createdAt,value
2018-03-09T00:00:04.922Z,4.79
2018-03-09T00:02:34.859Z,4.81
2018-03-09T00:05:04.233Z,4.85
2018-03-09T00:07:33.426Z,4.84
2018-03-09T00:10:02.675Z,4.86
2018-03-09T00:12:32.655Z,4.82
2018-03-09T00:15:02.183Z,4.77
2018-03-09T00:17:31.446Z,4.72
2018-03-09T00:20:00.672Z,4.77
2018-03-09T00:22:32.615Z,4.73
2018-03-09T00:25:01.838Z,4.75
2018-03-09T00:27:31.086Z,4.71
2018-03-09T00:30:01.066Z,4.72
2018-03-09T00:32:31.074Z,4.72
2018-03-09T00:35:01.064Z,4.72
2018-03-09T00:37:31.066Z,4.73
2018-03-09T00:40:00.422Z,4.73
2018-03-09T00:42:29.600Z,4.74
2018-03-09T00:44:58.859Z,4.72
2018-03-09T00:47:28.081Z,4.73
2018-03-09T00:49:57.249Z,4.72
2018-03-09T00:52:26.514Z,4.74
2018-03-09T00:54:56.474Z,4.74
2018-03-09T00:57:25.694Z,4.69
2018-03-09T00:59:54.906Z,4.69
2018-03-09T01:02:24.895Z,4.67
2018-03-09T01:04:54.263Z,4.62
2018-03-09T01:07:23.674Z,4.62
2018-03-09T01:09:52.939Z,4.64
2018-03-09T01:12:22.148Z,4.56
2018-03-09T01:14:51.382Z,4.54
2018-03-09T01:17:20.681Z,4.55
2018-03-09T01:19:49.875Z,4.57
2018-03-09T01:22:19.075Z,4.56
2018-03-09T01:24:49.103Z,4.52
2018-03-09T01:27:18.427Z,4.50
2018-03-09T01:29:47.635Z,4.49
2018-03-09T01:32:17.584Z,4.49
2018-03-09T01:34:46.784Z,4.45
2018-03-09T01:37:16.053Z,4.46
2018-03-09T01:39:46.022Z,4.47
2018-03-09T01:42:15.224Z,4.49
2018-03-09T01:44:44.426Z,4.50
2018-03-09T01:47:13.628Z,4.45
2018-03-09T01:49:42.819Z,4.42
2018-03-09T01:52:29.606Z,4.38
2018-03-09T01:54:58.811Z,4.41
2018-03-09T01:57:28.025Z,4.41
2018-03-09T01:59:57.983Z,4.37
2018-03-09T02:02:28.264Z,4.37
2018-03-09T02:04:57.457Z,4.40
2018-03-09T02:07:26.678Z,4.38
2018-03-09T02:09:55.900Z,4.37
2018-03-09T02:12:25.919Z,4.36
2018-03-09T02:14:55.153Z,4.36
2018-03-09T02:17:24.374Z,4.37
2018-03-09T02:19:53.578Z,4.32
2018-03-09T02:22:22.807Z,4.35
2018-03-09T02:24:52.003Z,4.37
2018-03-09T02:27:21.256Z,4.26
2018-03-09T02:29:50.475Z,4.26
2018-03-09T02:32:19.695Z,4.31
2018-03-09T02:34:48.974Z,4.31
2018-03-09T02:37:18.263Z,4.31
2018-03-09T02:39:47.457Z,4.25
2018-03-09T02:42:16.673Z,4.25
2018-03-09T02:44:46.738Z,4.25
2018-03-09T02:47:15.994Z,4.29
2018-03-09T02:49:45.173Z,4.31
2018-03-09T02:52:14.351Z,4.31
2018-03-09T02:54:43.541Z,4.30
2018-03-09T02:57:12.976Z,4.32
2018-03-09T02:59:42.191Z,4.29
2018-03-09T03:02:12.154Z,4.28
2018-03-09T03:04:41.353Z,4.33
2018-03-09T03:07:10.639Z,4.27
2018-03-09T03:09:39.853Z,4.25
2018-03-09T03:12:09.074Z,4.21
2018-03-09T03:14:38.275Z,4.20
2018-03-09T03:17:07.473Z,4.18
2018-03-09T03:19:36.763Z,4.18
2018-03-09T03:22:05.946Z,4.19
2018-03-09T03:24:35.151Z,4.19
2018-03-09T03:27:04.363Z,4.20
2018-03-09T03:29:33.591Z,4.25
2018-03-09T03:32:02.860Z,4.28
2018-03-09T03:34:32.071Z,4.32
2018-03-09T03:37:02.043Z,4.30
2018-03-09T03:39:31.264Z,4.27
2018-03-09T03:42:00.491Z,4.31
2018-03-09T03:44:30.483Z,4.30
2018-03-09T03:46:59.683Z,4.29
2018-03-09T03:49:30.498Z,4.24
2018-03-09T03:51:59.715Z,4.20
2018-03-09T03:54:28.922Z,4.18
2018-03-09T03:56:58.963Z,4.21
2018-03-09T03:59:28.181Z,4.19
2018-03-09T04:01:57.391Z,4.20
2018-03-09T04:04:26.588Z,4.22
2018-03-09T04:06:55.799Z,4.24
2018-03-09T04:09:25.798Z,4.23
2018-03-09T04:11:55.115Z,4.21
2018-03-09T04:14:24.390Z,4.25
2018-03-09T04:16:53.603Z,4.24
2018-03-09T04:19:22.858Z,4.25
2018-03-09T04:21:52.068Z,4.33
2018-03-09T04:24:21.279Z,4.35
2018-03-09T04:26:50.576Z,4.37
2018-03-09T04:29:19.782Z,4.39
2018-03-09T04:31:49.034Z,4.44
2018-03-09T04:34:19.068Z,4.42
2018-03-09T04:36:48.270Z,4.42
2018-03-09T04:39:17.462Z,4.43
2018-03-09T04:41:47.427Z,4.44
2018-03-09T04:44:16.598Z,4.44
2018-03-09T04:46:45.786Z,4.40
2018-03-09T04:49:15.019Z,4.38
2018-03-09T04:51:44.379Z,4.36
2018-03-09T04:54:13.622Z,4.35
2018-03-09T04:56:42.827Z,4.37
2018-03-09T04:59:12.061Z,4.40
2018-03-09T05:01:42.010Z,4.43
2018-03-09T05:04:11.218Z,4.44
2018-03-09T05:06:40.403Z,4.47
2018-03-09T05:09:09.601Z,4.47
2018-03-09T05:11:39.569Z,4.45
2018-03-09T05:14:08.807Z,4.44
2018-03-09T05:16:37.993Z,4.45
2018-03-09T05:19:07.209Z,4.40
2018-03-09T05:21:36.420Z,4.37
2018-03-09T05:24:05.609Z,4.34
2018-03-09T05:26:35.601Z,4.30
2018-03-09T05:29:04.906Z,4.30
2018-03-09T05:31:34.106Z,4.32
2018-03-09T05:34:03.345Z,4.26
2018-03-09T05:36:32.598Z,4.24
2018-03-09T05:39:01.800Z,4.21
2018-03-09T05:41:31.738Z,4.22
2018-03-09T05:44:00.931Z,4.22
2018-03-09T05:46:30.156Z,4.20
2018-03-09T05:49:00.131Z,4.23
2018-03-09T05:51:29.411Z,4.23
2018-03-09T05:53:58.649Z,4.21
2018-03-09T05:56:27.857Z,4.25
2018-03-09T05:58:57.061Z,4.28
2018-03-09T06:01:26.266Z,4.25
2018-03-09T06:03:56.242Z,4.29
2018-03-09T06:06:25.434Z,4.28
2018-03-09T06:08:54.640Z,4.27
2018-03-09T06:11:23.855Z,4.24
2018-03-09T06:13:53.067Z,4.28
2018-03-09T06:16:22.322Z,4.26
2018-03-09T06:18:51.541Z,4.28
2018-03-09T06:21:20.750Z,4.34
2018-03-09T06:23:50.239Z,4.33
2018-03-09T06:26:19.439Z,4.36
2018-03-09T06:28:48.675Z,4.35
2018-03-09T06:31:18.657Z,4.35
2018-03-09T06:33:47.883Z,4.37
2018-03-09T06:36:17.868Z,4.35
2018-03-09T06:38:47.176Z,4.33
2018-03-09T06:41:16.368Z,4.34
2018-03-09T06:43:45.574Z,4.38
2018-03-09T06:46:14.763Z,4.43
2018-03-09T06:48:43.983Z,4.48
2018-03-09T06:51:13.163Z,4.51
2018-03-09T06:53:42.399Z,4.56
2018-03-09T06:56:11.623Z,4.63
2018-03-09T06:58:40.812Z,4.67
2018-03-09T07:01:10.174Z,4.71
2018-03-09T07:03:40.133Z,4.81
2018-03-09T07:06:09.377Z,4.86
2018-03-09T07:08:39.365Z,4.88
2018-03-09T07:11:08.878Z,4.90
2018-03-09T07:13:38.121Z,4.96
2018-03-09T07:16:09.182Z,4.99
2018-03-09T07:18:38.403Z,5.06
2018-03-09T07:21:08.487Z,5.07
2018-03-09T07:23:37.701Z,5.16
2018-03-09T07:26:06.971Z,5.16
2018-03-09T07:28:37.021Z,5.25
2018-03-09T07:31:06.206Z,5.31
2018-03-09T07:33:35.434Z,5.33
2018-03-09T07:36:04.768Z,5.44
2018-03-09T07:38:34.754Z,5.52
2018-03-09T07:41:04.058Z,5.56
2018-03-09T07:43:33.304Z,5.67
2018-03-09T07:46:02.720Z,5.74
2018-03-09T07:51:07.454Z,5.82
2018-03-09T07:53:36.631Z,5.87
2018-03-09T07:56:06.895Z,5.94
2018-03-09T07:58:36.192Z,6.01
2018-03-09T08:01:05.536Z,6.10
2018-03-09T08:03:36.403Z,6.18
2018-03-09T08:06:05.642Z,6.25
2018-03-09T08:08:34.978Z,6.29
2018-03-09T08:11:04.962Z,6.36
2018-03-09T08:13:34.195Z,6.34
2018-03-09T08:16:04.164Z,6.36
2018-03-09T08:18:33.433Z,6.42
2018-03-09T08:21:02.565Z,6.53
2018-03-09T08:23:31.773Z,6.61
2018-03-09T08:26:01.057Z,6.72
2018-03-09T08:28:30.290Z,6.79
2018-03-09T08:30:59.489Z,6.87
2018-03-09T08:33:29.473Z,6.96
2018-03-09T08:35:58.743Z,6.97
2018-03-09T08:38:28.091Z,6.93
2018-03-09T08:40:57.502Z,6.98
2018-03-09T08:43:26.798Z,7.04
2018-03-09T08:45:56.031Z,7.07
2018-03-09T08:48:25.479Z,7.14
2018-03-09T08:50:54.878Z,7.21
2018-03-09T08:53:24.106Z,7.29
2018-03-09T08:55:53.514Z,7.36
2018-03-09T08:58:22.766Z,7.41
2018-03-09T09:00:52.051Z,7.43
2018-03-09T09:03:21.341Z,7.42
2018-03-09T09:05:50.587Z,7.46
2018-03-09T09:08:19.841Z,7.47
2018-03-09T09:10:49.046Z,7.50
2018-03-09T09:13:18.478Z,7.61
2018-03-09T09:15:47.693Z,7.72
2018-03-09T09:18:16.948Z,7.83
2018-03-09T09:20:46.141Z,7.96
2018-03-09T09:23:15.335Z,8.08
2018-03-09T09:25:45.475Z,8.25
2018-03-09T09:28:14.723Z,8.42
2018-03-09T09:30:44.687Z,8.62
2018-03-09T09:33:13.882Z,8.88
2018-03-09T09:35:43.094Z,9.06
2018-03-09T09:38:12.332Z,9.11
2018-03-09T09:40:42.288Z,9.13
2018-03-09T09:43:11.555Z,9.22
2018-03-09T09:45:40.728Z,9.32
2018-03-09T09:48:09.964Z,9.39
2018-03-09T09:50:39.214Z,9.28
2018-03-09T09:53:08.453Z,9.32
2018-03-09T09:55:37.679Z,9.27
2018-03-09T09:58:06.877Z,9.27
2018-03-09T10:00:36.090Z,9.21
2018-03-09T10:03:05.337Z,9.12
2018-03-09T10:05:34.531Z,9.07
2018-03-09T10:08:03.747Z,9.08
2018-03-09T10:10:33.044Z,9.12
2018-03-09T10:13:02.297Z,9.19
2018-03-09T10:15:31.568Z,9.30
2018-03-09T10:18:00.820Z,9.38
2018-03-09T10:20:30.048Z,9.39
2018-03-09T10:22:59.263Z,9.34
2018-03-09T10:25:28.447Z,9.37
2018-03-09T10:27:57.716Z,9.34
2018-03-09T10:30:26.946Z,9.31
2018-03-09T10:32:56.158Z,9.41
2018-03-09T10:35:25.377Z,9.45
2018-03-09T10:37:54.642Z,9.42
2018-03-09T10:40:24.268Z,9.49
2018-03-09T10:42:53.485Z,9.60
2018-03-09T10:45:22.731Z,9.75
2018-03-09T10:47:51.970Z,9.90
2018-03-09T10:50:22.956Z,10.04
2018-03-09T10:52:56.126Z,10.14
2018-03-09T10:55:25.350Z,10.13
2018-03-09T10:57:54.609Z,10.05
2018-03-09T11:13:46.452Z,10.22
2018-03-09T11:16:15.664Z,10.28
2018-03-09T11:18:44.840Z,10.35
2018-03-09T11:21:14.088Z,10.45
2018-03-09T11:23:43.314Z,10.50
2018-03-09T11:26:13.310Z,10.59
2018-03-09T11:28:42.560Z,10.64
2018-03-09T11:31:11.756Z,10.66
2018-03-09T11:33:41.097Z,10.77
2018-03-09T11:36:10.279Z,10.87
2018-03-09T11:38:39.474Z,10.82
2018-03-09T11:41:08.681Z,10.75
2018-03-09T11:43:37.886Z,10.93
2018-03-09T11:46:07.074Z,11.15
2018-03-09T11:48:36.271Z,11.19
2018-03-09T11:51:05.509Z,11.33
2018-03-09T11:53:35.665Z,11.32
2018-03-09T11:56:05.343Z,11.27
2018-03-09T11:58:34.647Z,11.21
2018-03-09T12:01:04.647Z,11.18
2018-03-09T12:03:33.874Z,11.18
2018-03-09T12:06:03.499Z,11.17
2018-03-09T12:08:32.697Z,11.17
2018-03-09T12:11:01.911Z,11.21
2018-03-09T12:13:31.278Z,11.24
2018-03-09T12:16:00.501Z,11.23
2018-03-09T12:18:29.762Z,11.27
2018-03-09T12:20:58.988Z,11.31
2018-03-09T12:23:28.425Z,11.29
2018-03-09T12:25:57.648Z,11.33
2018-03-09T12:28:26.850Z,11.38
2018-03-09T12:30:56.083Z,11.36
2018-03-09T12:33:25.932Z,11.44
2018-03-09T12:35:55.379Z,11.51
2018-03-09T12:38:24.564Z,11.58
2018-03-09T12:40:53.785Z,11.56
2018-03-09T12:43:23.005Z,11.61
2018-03-09T12:45:52.192Z,11.59
2018-03-09T12:48:21.670Z,11.53
2018-03-09T12:50:50.894Z,11.55
2018-03-09T12:53:20.096Z,11.58
2018-03-09T12:55:49.303Z,11.65
2018-03-09T12:58:18.499Z,11.68
2018-03-09T13:00:47.796Z,11.81
2018-03-09T13:03:17.143Z,11.91
2018-03-09T13:05:47.363Z,11.98
2018-03-09T13:08:17.445Z,12.05
2018-03-09T13:10:46.625Z,12.10
2018-03-09T13:13:17.938Z,12.12
2018-03-09T13:15:50.086Z,12.11
2018-03-09T13:18:19.336Z,12.15
2018-03-09T13:20:48.659Z,12.02
2018-03-09T13:23:17.882Z,12.00
2018-03-09T13:25:47.892Z,11.92
2018-03-09T13:28:17.216Z,11.82
2018-03-09T13:30:46.425Z,11.80
2018-03-09T13:33:15.670Z,11.83
2018-03-09T13:35:45.066Z,11.85
2018-03-09T13:38:14.289Z,11.78
2018-03-09T13:40:43.536Z,11.76
2018-03-09T13:43:13.711Z,11.69
2018-03-09T13:45:43.692Z,11.70
2018-03-09T13:48:12.961Z,11.80
2018-03-09T13:50:42.194Z,11.74
2018-03-09T13:53:11.545Z,11.82
2018-03-09T13:55:41.731Z,11.90
2018-03-09T13:58:11.761Z,11.96
2018-03-09T14:00:40.913Z,11.96
2018-03-09T14:03:10.163Z,12.01
2018-03-09T14:05:39.354Z,11.96
2018-03-09T14:08:09.358Z,11.95
2018-03-09T14:10:39.269Z,11.98
2018-03-09T14:13:08.467Z,11.96
2018-03-09T14:15:37.727Z,11.89
2018-03-09T14:18:06.935Z,11.93
2018-03-09T14:20:36.213Z,11.97
2018-03-09T14:23:05.369Z,12.01
2018-03-09T14:25:34.592Z,12.04
2018-03-09T14:28:03.797Z,12.06
2018-03-09T14:30:33.046Z,12.05
2018-03-09T14:33:02.250Z,12.08
2018-03-09T14:35:31.469Z,12.12
2018-03-09T14:38:00.811Z,12.12
2018-03-09T14:40:30.041Z,12.11
2018-03-09T14:42:59.504Z,12.09
2018-03-09T14:45:28.748Z,12.15
2018-03-09T14:47:57.955Z,12.18
2018-03-09T14:50:27.836Z,12.15
2018-03-09T14:52:57.022Z,12.09
2018-03-09T14:55:26.277Z,12.03
2018-03-09T14:57:56.259Z,11.96
2018-03-09T15:00:25.487Z,11.92
2018-03-09T15:02:55.535Z,11.88
2018-03-09T15:05:24.746Z,11.80
2018-03-09T15:07:53.948Z,11.81
2018-03-09T15:10:23.202Z,11.87
2018-03-09T15:12:52.410Z,11.87
2018-03-09T15:15:21.703Z,11.89
2018-03-09T15:17:50.939Z,11.91
2018-03-09T15:20:20.151Z,11.86
2018-03-09T15:22:49.503Z,11.82
2018-03-09T15:27:54.908Z,11.86
2018-03-09T15:30:24.103Z,11.85
2018-03-09T15:32:56.196Z,11.85
2018-03-09T15:35:27.072Z,11.84
2018-03-09T15:38:01.727Z,11.87
2018-03-09T15:40:30.961Z,11.83
2018-03-09T15:43:01.015Z,11.83
2018-03-09T15:45:30.273Z,11.79
2018-03-09T15:47:59.517Z,11.78
2018-03-09T15:50:28.729Z,11.80
2018-03-09T15:52:57.959Z,11.77
2018-03-09T15:55:27.247Z,11.76
2018-03-09T15:57:56.462Z,11.74
2018-03-09T16:00:25.696Z,11.75
2018-03-09T16:02:54.968Z,11.70
2018-03-09T16:05:24.956Z,11.69
2018-03-09T16:07:54.195Z,11.69
2018-03-09T16:10:24.178Z,11.64
2018-03-09T16:12:53.418Z,11.62
2018-03-09T16:15:22.858Z,11.56
2018-03-09T16:17:53.073Z,11.53
2018-03-09T16:20:22.297Z,11.53
2018-03-09T16:22:51.566Z,11.48
2018-03-09T16:25:20.785Z,11.43
2018-03-09T16:27:50.032Z,11.41
2018-03-09T16:30:19.252Z,11.33
2018-03-09T16:32:48.490Z,11.25
2018-03-09T16:35:17.872Z,11.14
2018-03-09T16:37:47.130Z,11.08
2018-03-09T16:40:16.379Z,10.96
2018-03-09T16:42:46.410Z,10.89
2018-03-09T16:45:15.682Z,10.84
2018-03-09T16:47:44.885Z,10.77
2018-03-09T16:50:14.119Z,10.71
2018-03-09T16:52:44.130Z,10.63
2018-03-09T16:55:14.106Z,10.61
2018-03-09T16:57:43.310Z,10.52
2018-03-09T17:00:12.546Z,10.53
2018-03-09T17:02:42.546Z,10.54
2018-03-09T17:05:11.756Z,10.51
2018-03-09T17:07:41.853Z,10.45
2018-03-09T17:10:11.074Z,10.45
2018-03-09T17:12:41.095Z,10.40
2018-03-09T17:15:10.378Z,10.32
2018-03-09T17:17:39.677Z,10.35
2018-03-09T17:20:08.975Z,10.34
2018-03-09T17:22:38.268Z,10.31
2018-03-09T17:25:07.510Z,10.31
2018-03-09T17:27:36.835Z,10.29
2018-03-09T17:30:06.059Z,10.29
2018-03-09T17:32:35.457Z,10.23
2018-03-09T17:35:04.648Z,10.21
2018-03-09T17:37:33.884Z,10.14
2018-03-09T17:40:03.893Z,10.13
2018-03-09T17:42:33.950Z,10.09
2018-03-09T17:45:04.020Z,10.08
2018-03-09T17:47:33.277Z,10.10
2018-03-09T17:50:02.534Z,10.09
2018-03-09T17:52:31.757Z,10.04
2018-03-09T17:55:00.962Z,9.93
2018-03-09T17:57:30.169Z,9.89
2018-03-09T17:59:59.436Z,9.90
2018-03-09T18:02:28.655Z,9.78
2018-03-09T18:04:57.902Z,9.77
2018-03-09T18:07:27.089Z,9.73
2018-03-09T18:09:57.179Z,9.67
2018-03-09T18:12:26.452Z,9.56
2018-03-09T18:14:55.661Z,9.54
2018-03-09T18:17:24.971Z,9.48
2018-03-09T18:19:54.163Z,9.45
2018-03-09T18:22:23.429Z,9.41
2018-03-09T18:24:52.708Z,9.36
2018-03-09T18:27:21.920Z,9.30
2018-03-09T18:29:51.895Z,9.25
2018-03-09T18:32:21.106Z,9.25
2018-03-09T18:34:50.360Z,9.24
2018-03-09T18:37:19.618Z,9.20
2018-03-09T18:39:48.810Z,9.18
2018-03-09T18:42:18.003Z,9.19
2018-03-09T18:44:47.194Z,9.13
2018-03-09T18:47:16.390Z,9.09
2018-03-09T18:49:45.634Z,9.06
2018-03-09T18:52:15.629Z,9.02
2018-03-09T18:54:45.600Z,8.96
2018-03-09T18:57:14.838Z,8.94
2018-03-09T18:59:44.098Z,8.96
2018-03-09T19:02:13.354Z,8.90
2018-03-09T19:04:43.315Z,8.86
2018-03-09T19:07:12.546Z,8.84
2018-03-09T19:09:41.759Z,8.79
2018-03-09T19:12:11.724Z,8.75
2018-03-09T19:14:40.934Z,8.77
2018-03-09T19:17:10.935Z,8.78
2018-03-09T19:19:40.136Z,8.77
2018-03-09T19:22:09.350Z,8.82
2018-03-09T19:24:38.624Z,8.83
2018-03-09T19:27:07.834Z,8.83
2018-03-09T19:29:37.162Z,8.84
2018-03-09T19:32:06.395Z,8.82
2018-03-09T19:34:35.654Z,8.85
2018-03-09T19:37:04.878Z,8.86
2018-03-09T19:39:34.847Z,8.85
2018-03-09T19:42:05.009Z,8.88
2018-03-09T19:44:34.244Z,8.81
2018-03-09T19:47:03.442Z,8.81
2018-03-09T19:49:32.719Z,8.75
2018-03-09T19:52:01.972Z,8.76
2018-03-09T19:54:32.706Z,8.77
2018-03-09T19:57:01.931Z,8.77
2018-03-09T19:59:31.904Z,8.79
2018-03-09T20:02:01.132Z,8.81
2018-03-09T20:04:31.114Z,8.83
2018-03-09T20:07:00.343Z,8.83
2018-03-09T20:09:29.632Z,8.84
2018-03-09T20:11:58.872Z,8.87
2018-03-09T20:14:28.090Z,8.84
2018-03-09T20:16:57.333Z,8.80
2018-03-09T20:19:26.559Z,8.85
2018-03-09T20:21:56.558Z,8.86
2018-03-09T20:24:26.556Z,8.88
2018-03-09T20:26:55.817Z,8.88
2018-03-09T20:29:25.065Z,8.89
2018-03-09T20:31:55.144Z,8.87
2018-03-09T20:34:24.434Z,8.89
2018-03-09T20:36:53.761Z,8.89
2018-03-09T20:39:22.986Z,8.91
2018-03-09T20:41:53.003Z,8.91
2018-03-09T20:44:22.986Z,8.92
2018-03-09T20:46:52.213Z,8.97
2018-03-09T20:49:22.231Z,8.94
2018-03-09T20:51:51.438Z,8.97
2018-03-09T20:54:21.452Z,8.98
2018-03-09T20:56:51.436Z,8.98
2018-03-09T20:59:20.693Z,8.99
2018-03-09T21:01:49.926Z,9.01
2018-03-09T21:04:19.119Z,9.02
2018-03-09T21:06:48.355Z,9.01
2018-03-09T21:09:17.663Z,9.03
2018-03-09T21:11:47.660Z,8.98
2018-03-09T21:14:16.882Z,8.94
2018-03-09T21:16:46.189Z,8.94
2018-03-09T21:19:15.420Z,8.96
2018-03-09T21:21:44.638Z,8.98
2018-03-09T21:24:13.861Z,8.98
2018-03-09T21:26:43.862Z,8.96
2018-03-09T21:29:13.087Z,8.95
2018-03-09T21:31:43.085Z,8.90
2018-03-09T21:34:12.654Z,8.89
2018-03-09T21:36:41.927Z,8.87
2018-03-09T21:39:11.264Z,8.90
2018-03-09T21:41:40.507Z,8.90
2018-03-09T21:44:10.552Z,8.88
2018-03-09T21:46:39.755Z,8.88
2018-03-09T21:49:09.026Z,8.88
2018-03-09T21:51:38.294Z,8.87
2018-03-09T21:54:07.471Z,8.85
2018-03-09T21:56:36.699Z,8.83
2018-03-09T21:59:06.699Z,8.84
2018-03-09T22:01:35.987Z,8.88
2018-03-09T22:04:05.298Z,8.90
2018-03-09T22:06:34.556Z,8.89
2018-03-09T22:09:03.839Z,8.84
2018-03-09T22:11:33.072Z,8.79
2018-03-09T22:14:02.287Z,8.79
2018-03-09T22:16:31.518Z,8.78
2018-03-09T22:19:00.746Z,8.82
2018-03-09T22:21:29.997Z,8.88
2018-03-09T22:24:00.002Z,8.90
2018-03-09T22:26:29.999Z,8.93
2018-03-09T22:28:59.272Z,8.96
2018-03-09T22:31:28.554Z,9.00
2018-03-09T22:33:57.766Z,8.97
2018-03-09T22:36:26.974Z,8.99
2018-03-09T22:38:56.272Z,8.98
2018-03-09T22:41:25.474Z,8.97
2018-03-09T22:43:54.686Z,9.00
2018-03-09T22:46:23.996Z,9.01
2018-03-09T22:48:54.035Z,9.05
2018-03-09T22:51:24.005Z,9.04
2018-03-09T22:53:53.262Z,9.03
2018-03-09T22:56:22.503Z,8.99
2018-03-09T22:58:51.708Z,8.92
2018-03-09T23:01:20.957Z,8.91
2018-03-09T23:03:51.594Z,8.89
2018-03-09T23:06:20.793Z,8.88
2018-03-09T23:08:50.021Z,8.90
2018-03-09T23:11:19.218Z,8.91
2018-03-09T23:13:48.466Z,8.90
2018-03-09T23:16:18.447Z,8.95
2018-03-09T23:18:47.918Z,8.97
2018-03-09T23:21:17.967Z,8.98
2018-03-09T23:23:47.134Z,8.96
2018-03-09T23:26:17.144Z,8.99
2018-03-09T23:28:46.368Z,9.03
2018-03-09T23:31:15.590Z,9.07
2018-03-09T23:33:44.811Z,9.12
2018-03-09T23:36:14.804Z,9.19
2018-03-09T23:38:44.012Z,9.14
2018-03-09T23:41:14.684Z,9.12
2018-03-09T23:43:43.979Z,9.14
2018-03-09T23:46:13.200Z,9.18
2018-03-09T23:48:42.416Z,9.17
2018-03-09T23:51:11.815Z,9.14
2018-03-09T23:53:41.034Z,9.18
2018-03-09T23:56:10.994Z,9.21
2018-03-09T23:58:40.219Z,9.25
